Weather observations for the past three days for
Bakersfield, Meadows Field Airport
Imperial (Metric)
Date Time (pdt) Wind (mph) Vis. (mi.) Weather Sky Cond. Temperature (ºF) Relative Humidity Wind Chill (°F) Heat Index (°F) Pressure Precipitation (in)
Air Dwpt 6 hour altimeter (in) sea level (mb) 1 hr 3 hr 6 hr
Max. Min.
03 17:54 W 9 10.00 Fair CLR 84.9 46.9 27% 82 29.82 1009.2
03 16:54 W 6 10.00 Fair CLR 84.9 46.9 86 71.1 27% 82 29.83 1009.6
03 15:54 Vrbl 5 10.00 Fair CLR 84 50 31% 82 29.85 1010.4
03 14:54 W 7 10.00 Fair CLR 82 51.1 34% 81 29.88 1011.3
03 13:54 Calm 10.00 Fair CLR 80.1 51.1 37% 80 29.9 1012.0
03 12:54 SW 6 10.00 Fair CLR 77 52 42% 78 29.93 1012.9
03 11:54 Calm 10.00 Fair CLR 73.9 52 46% 29.95 1013.8
03 10:54 Vrbl 6 9.00 Fair CLR 71.1 53.1 72 60.1 53% 29.98 1014.6
03 09:54 Calm 10.00 Fair CLR 69.1 52 55% 29.99 1015.0
03 08:54 S 6 10.00 Fair CLR 66 52 61% 30 1015.3
03 07:54 Calm 10.00 Fair CLR 63 52 68% 30 1015.4
03 06:54 Calm 10.00 Fair CLR 60.1 52 75% 29.98 1014.8
03 05:54 Calm 10.00 Fair CLR 61 52 72% 29.97 1014.4
03 04:54 W 7 10.00 Fair CLR 63 52 73 63 68% 29.96 1014.1
03 03:54 W 5 10.00 Fair CLR 64 51.1 63% 29.96 1014.1
03 02:54 W 3 10.00 Fair CLR 64.9 50 59% 29.95 1013.7
03 01:54 NW 6 10.00 Fair CLR 66 51.1 59% 29.96 1013.9
03 00:54 N 7 10.00 Fair CLR 69.1 50 51% 29.96 1014.1
02 23:54 NW 5 10.00 Fair CLR 69.1 48 47% 29.96 1014.0
02 22:54 Calm 10.00 Fair CLR 72 46 82.9 72 40% 29.95 1013.7
02 21:54 N 3 10.00 Fair CLR 75 46 36% 77 29.96 1013.8
02 20:54 NE 3 10.00 Fair CLR 77 46 33% 78 29.95 1013.5
02 19:54 N 5 10.00 Fair CLR 77 46.9 35% 78 29.93 1013.0
02 18:54 NW 8 10.00 Fair CLR 80.1 48 33% 79 29.94 1013.2
02 17:54 NW 10 10.00 Fair CLR 82 48 31% 81 29.94 1013.3
02 16:54 NW 12 G 17 10.00 Fair CLR 82.9 46.9 82.9 70 28% 81 29.95 1013.6
02 15:54 NW 8 10.00 Fair CLR 82 48 31% 81 29.97 1014.3
02 14:54 W 7 10.00 Fair CLR 80.1 48.9 34% 79 29.99 1015.0
02 13:54 NW 9 10.00 Fair CLR 79 48 34% 79 30.01 1015.6
02 12:54 Calm 10.00 Fair CLR 75.9 48.9 39% 78 30.03 1016.3
02 11:54 SW 7 10.00 Fair CLR 73 48.9 43% 30.05 1017.1
02 10:54 N 5 10.00 Fair CLR 70 48.9 70 57.9 47% 30.06 1017.5
02 09:54 SW 5 10.00 Fair CLR 66.9 48 51% 30.06 1017.5
02 08:54 SE 6 10.00 Fair CLR 64.9 48 54% 30.06 1017.3
02 07:54 SE 7 9.00 Fair CLR 62.1 46 56% 30.06 1017.5
02 06:54 E 3 9.00 Fair CLR 60.1 44.1 56% 30.05 1017.2
02 05:54 Calm 10.00 Fair CLR 59 43 56% 30.05 1016.9
02 04:54 Calm 10.00 Fair CLR 60.1 45 69.1 59 58% 30.03 1016.5
02 03:54 N 3 10.00 Fair CLR 60.1 45 58% 30.04 1016.6
02 02:54 W 5 10.00 Fair CLR 62.1 44.1 52% 30.03 1016.3
02 01:54 W 5 10.00 Fair CLR 63 44.1 50% 30.02 1016.1
02 00:54 W 5 10.00 Fair CLR 64 42.1 45% 30.01 1015.7
01 23:54 NW 6 10.00 Fair CLR 64.9 39.9 40% 29.99 1015.0
01 22:54 N 10 10.00 Fair CLR 69.1 43 84 68 39% 29.96 1014.1
01 21:54 NW 12 10.00 Fair CLR 70 45 41% 29.95 1013.9
01 20:54 NW 8 10.00 Fair CLR 75 42.1 31% 77 29.93 1013.0
01 19:54 NW 7 8.00 Fair CLR 75 44.1 33% 77 29.9 1012.1
01 18:54 NW 10 10.00 Fair CLR 81 45 28% 80 29.89 1011.7
01 17:54 NW 9 10.00 Fair CLR 82.9 45 26% 81 29.89 1011.6
01 16:54 NW 8 10.00 Fair CLR 84 41 84.9 69.1 22% 81 29.9 1011.9
01 15:54 W 7 10.00 Fair CLR 82.9 42.1 24% 81 29.91 1012.4
01 14:54 W 7 10.00 Fair CLR 82 48 31% 81 29.93 1013.0
01 13:54 Calm 10.00 Fair CLR 79 48.9 35% 79 29.96 1013.8
01 12:54 Vrbl 5 10.00 Fair CLR 75.9 50 40% 78 29.98 1014.6
01 11:54 W 5 10.00 Fair CLR 72 51.1 48% 30 1015.3
01 10:54 Calm 10.00 Fair CLR 70 50 71.1 57 49% 30 1015.4
01 09:54 NW 8 10.00 Fair CLR 68 51.1 55% 30 1015.5
01 08:54 NW 10 9.00 Fair CLR 64 50 60% 30.01 1015.5
01 07:54 NW 7 9.00 Fair CLR 62.1 46.9 58% 30 1015.3
01 06:54 NW 6 10.00 Fair CLR 57 45 64% 29.97 1014.3
01 05:54 NW 7 10.00 Fair CLR 59 46 62% 29.95 1013.7
01 04:54 NW 7 10.00 Fair CLR 60.1 45 72 60.1 58% 29.93 1012.9
01 03:54 N 7 10.00 Fair CLR 62.1 45 54% 29.93 1012.7
01 02:54 NW 6 10.00 Fair CLR 63 42.1 47% 29.91 1012.3
01 01:54 NW 8 10.00 Fair CLR 64 39 40% 29.9 1012.0
01 00:54 N 6 10.00 Fair CLR 66.9 30.9 26% 29.9 1011.7
31 23:54 W 7 10.00 Fair CLR 70 34 27% 29.89 1011.5
31 22:54 N 5 10.00 Fair CLR 72 39.9 93.9 72 31% 29.89 1011.4
31 21:54 N 12 10.00 Fair CLR 77 39.9 26% 77 29.85 1010.2
31 20:54 N 9 10.00 Fair CLR 77 41 28% 78 29.83 1009.5
31 19:54 NW 13 10.00 Fair CLR 81 41 24% 79 29.8 1008.6
31 18:54 NW 12 10.00 Fair CLR 87.1 44.1 22% 84 29.78 1007.9
Date Time (pdt) Wind (mph) Vis. (mi.) Weather Sky Cond. Air Dwpt Max. Min. Relative Humidity Wind Chill (°F) Heat Index (°F) altimeter (in) sea level (mb) 1 hr 3 hr 6 hr
6 hour
Temperature (ºF) Pressure Precipitation (in)